VYYY/RGN METAR and TAF weather

Enter ICAO airport designator
Station Type Date Time Source
VYYY METAR 2022/01/18 07:00 UTC NOAA

VYYY 180700Z 06008KT 7000 FEW025 31/20 Q1011 NOSIG


Station Type Date Time Source
VYYY Decoded METAR 2022/01/18 07:00 UTC NOAA

Yangon, Myanmar (VYYY) 16-46N 096-10E 15M
Jan 18, 2022 - 02:00 AM EST / 2022.01.18 0700 UTC
Wind: from the ENE (060 degrees) at 9 MPH (8 KT):0
Visibility: 4 mile(s):0
Sky conditions: mostly clear
Temperature: 87 F (31 C)
Dew Point: 68 F (20 C)
Relative Humidity: 52%
Pressure (altimeter): 29.85 in. Hg (1011 hPa)
ob: VYYY 180700Z 06008KT 7000 FEW025 31/20 Q1011 NOSIG
cycle: 7

Station Type Date Time Source
VYYY TAF 2022/01/18 06:42 UTC NOAA

TAF TAF VYYY 180500Z 1806/1906 31005KT 8000 FEW025 SCT120
TEMPO 1806/1812 30006KT 7000 FEW020

Example: see airport list